Time;durP1;ratioP1;P1;durP2;ratioP2;P2;SDS_P1;SDS_P2;PMS_P1;PMS_P2;Temp;Humidity;BMP_temperature;BMP_pressure;BME280_temperature;BME280_humidity;BME280_pressure;Samples;Min_cycle;Max_cycle;Signal;HPM_P1;HPM_P2
2021/04/06 00:01:54;;;;;;;1.20;0.50;;;17.60;51.90;;;;;;10482416;28;20107;-62
2021/04/06 00:07:01;;;;;;;1.60;0.50;;;17.70;52.00;;;;;;10499400;28;20062;-61
2021/04/06 00:12:05;;;;;;;2.13;0.73;;;17.70;51.90;;;;;;10481848;28;20400;-62
2021/04/06 00:17:09;;;;;;;1.27;0.50;;;17.70;51.80;;;;;;10481892;28;20484;-61
2021/04/06 00:22:13;;;;;;;2.47;0.68;;;17.70;51.80;;;;;;10481416;28;20035;-61
2021/04/06 00:27:31;;;;;;;1.10;0.60;;;17.70;51.80;;;;;;10481306;28;20025;-61
2021/04/06 00:32:32;;;;;;;0.98;0.40;;;17.70;51.80;;;;;;10498507;28;20068;-62
2021/04/06 00:37:44;;;;;;;2.50;0.60;;;17.70;51.90;;;;;;10498847;28;20442;-61
2021/04/06 00:42:45;;;;;;;1.33;0.43;;;17.70;51.80;;;;;;10480933;28;20040;-61
2021/04/06 00:48:01;;;;;;;2.15;0.90;;;17.70;51.80;;;;;;10480252;28;20029;-61
2021/04/06 00:53:02;;;;;;;1.40;0.57;;;17.70;51.90;;;;;;10475320;28;20434;-61
2021/04/06 00:58:14;;;;;;;0.93;0.40;;;17.70;51.90;;;;;;10497768;28;20472;-62
2021/04/06 01:03:17;;;;;;;1.92;0.40;;;17.70;51.90;;;;;;10479834;28;20044;-61
2021/04/06 01:08:18;;;;;;;1.17;0.40;;;17.70;52.00;;;;;;10497542;28;20062;-62
2021/04/06 01:13:20;;;;;;;1.38;0.68;;;17.70;51.90;;;;;;10497671;28;20125;-62
2021/04/06 01:18:22;;;;;;;1.63;0.55;;;17.70;52.00;;;;;;10479500;28;20056;-61
2021/04/06 01:23:25;;;;;;;2.15;0.90;;;17.70;52.00;;;;;;10496736;28;20476;-61
2021/04/06 01:28:30;;;;;;;0.88;0.47;;;17.70;51.90;;;;;;10479415;28;20025;-61
2021/04/06 01:33:33;;;;;;;1.40;0.68;;;17.70;51.90;;;;;;10496866;28;20053;-62
2021/04/06 01:38:41;;;;;;;1.08;0.50;;;17.70;51.90;;;;;;10497272;28;20027;-61
2021/04/06 01:43:47;;;;;;;1.10;0.50;;;17.70;51.90;;;;;;10496836;28;20044;-62
2021/04/06 01:48:48;;;;;;;1.50;0.57;;;17.70;52.00;;;;;;10496895;28;20098;-61
2021/04/06 01:53:50;;;;;;;0.80;0.32;;;17.70;52.60;;;;;;10478653;28;20044;-61
2021/04/06 01:58:55;;;;;;;1.08;0.55;;;17.70;52.00;;;;;;10496650;28;20037;-61
2021/04/06 02:04:06;;;;;;;0.60;0.47;;;17.70;52.00;;;;;;10496425;28;20028;-61
2021/04/06 02:09:08;;;;;;;0.45;0.28;;;17.70;52.00;;;;;;10461856;28;20461;-62
2021/04/06 02:14:18;;;;;;;1.65;0.50;;;17.70;52.00;;;;;;10491108;28;20032;-62
2021/04/06 02:19:30;;;;;;;2.22;0.85;;;17.70;52.00;;;;;;10503944;28;20182;-61
2021/04/06 02:24:34;;;;;;;2.95;0.82;;;17.70;52.00;;;;;;10503665;28;20044;-61
2021/04/06 02:29:50;;;;;;;1.35;0.40;;;17.70;52.10;;;;;;10503973;28;20502;-62
2021/04/06 02:34:54;;;;;;;1.75;0.60;;;17.70;52.10;;;;;;10503100;28;20063;-61
2021/04/06 02:40:13;;;;;;;2.95;0.90;;;17.70;52.10;;;;;;10503250;28;20028;-62
2021/04/06 02:45:18;;;;;;;1.10;0.50;;;17.70;52.10;;;;;;10502657;28;20082;-62
2021/04/06 02:50:25;;;;;;;1.33;0.40;;;17.70;52.10;;;;;;10502815;28;20086;-61
2021/04/06 02:55:26;;;;;;;1.30;0.32;;;17.70;52.20;;;;;;10459833;28;20037;-61
2021/04/06 03:00:26;;;;;;;0.85;0.50;;;17.70;52.10;;;;;;10464265;28;20094;-61
2021/04/06 03:05:33;;;;;;;1.85;0.40;;;17.70;52.10;;;;;;10502033;28;20524;-62
2021/04/06 03:10:36;;;;;;;1.45;0.40;;;17.70;52.00;;;;;;10501979;28;20032;-62
2021/04/06 03:15:41;;;;;;;1.52;0.40;;;17.70;52.00;;;;;;10502158;28;20090;-62
2021/04/06 03:20:42;;;;;;;1.00;0.60;;;17.80;52.00;;;;;;10501453;28;20086;-61
2021/04/06 03:25:43;;;;;;;1.88;0.88;;;17.80;52.00;;;;;;10501621;28;20074;-61
2021/04/06 03:30:44;;;;;;;1.08;0.52;;;17.80;52.00;;;;;;10483492;28;20070;-61
2021/04/06 03:35:47;;;;;;;1.45;0.40;;;17.70;52.00;;;;;;10501072;28;20125;-62
2021/04/06 03:40:48;;;;;;;1.95;0.73;;;17.70;52.10;;;;;;10500890;28;20349;-62
2021/04/06 03:46:03;;;;;;;1.40;0.50;;;17.70;52.20;;;;;;10482833;28;20033;-61
2021/04/06 03:51:27;;;;;;;1.30;0.50;;;17.70;52.10;;;;;;10500306;28;20070;-61
2021/04/06 03:56:31;;;;;;;2.03;0.55;;;17.70;52.10;;;;;;10500091;28;20085;-62
2021/04/06 04:01:32;;;;;;;1.20;0.60;;;17.70;52.10;;;;;;10482343;28;20036;-61
2021/04/06 04:06:33;;;;;;;3.15;0.90;;;17.80;52.20;;;;;;10481910;28;20081;-62
2021/04/06 04:11:33;;;;;;;0.88;0.40;;;17.70;52.10;;;;;;10499779;28;20056;-61
2021/04/06 04:16:36;;;;;;;2.25;0.40;;;17.70;52.10;;;;;;10499380;28;20032;-62
2021/04/06 04:21:38;;;;;;;1.25;0.50;;;17.70;52.20;;;;;;10498675;28;20074;-62
2021/04/06 04:26:39;;;;;;;1.48;0.60;;;17.70;52.20;;;;;;10481038;28;20074;-62
2021/04/06 04:31:43;;;;;;;0.77;0.38;;;17.70;52.30;;;;;;10480396;28;20043;-61
2021/04/06 04:36:44;;;;;;;2.95;0.40;;;17.70;52.30;;;;;;10498148;28;20056;-62
2021/04/06 04:41:45;;;;;;;1.70;0.63;;;17.70;52.30;;;;;;10498361;28;20107;-61
2021/04/06 04:46:46;;;;;;;0.90;0.40;;;17.70;52.30;;;;;;10480457;28;20449;-62
2021/04/06 04:51:47;;;;;;;1.33;0.43;;;17.70;52.20;;;;;;10497933;28;20115;-61
2021/04/06 04:56:47;;;;;;;1.50;0.73;;;17.70;52.30;;;;;;10496896;28;20060;-61
2021/04/06 05:01:48;;;;;;;1.60;0.50;;;17.70;52.30;;;;;;10493923;28;20382;-63
2021/04/06 05:06:49;;;;;;;4.63;0.63;;;17.70;52.30;;;;;;10495356;28;20032;-63
2021/04/06 05:11:50;;;;;;;3.42;0.60;;;17.70;52.40;;;;;;10470979;28;20064;-62
2021/04/06 05:16:50;;;;;;;5.72;0.68;;;17.70;52.70;;;;;;10456815;28;20067;-65
2021/04/06 05:21:51;;;;;;;6.95;1.10;;;17.70;53.30;;;;;;10472499;28;20060;-64
2021/04/06 05:26:52;;;;;;;3.85;0.90;;;17.70;53.00;;;;;;10479466;28;20112;-66
2021/04/06 05:31:53;;;;;;;3.72;0.60;;;17.70;54.10;;;;;;10496879;28;20025;-63
2021/04/06 05:36:54;;;;;;;4.50;0.88;;;17.80;54.40;;;;;;10481186;28;20516;-64
2021/04/06 05:41:54;;;;;;;5.75;0.82;;;17.80;54.30;;;;;;10493945;28;20093;-63
2021/04/06 05:46:59;;;;;;;6.85;1.33;;;17.80;55.10;;;;;;10498681;28;20056;-61
2021/04/06 05:52:00;;;;;;;4.70;1.35;;;17.80;54.20;;;;;;10480027;28;20024;-66
2021/04/06 05:57:01;;;;;;;5.38;0.90;;;17.80;54.10;;;;;;10499596;28;20047;-65
2021/04/06 06:02:02;;;;;;;6.32;0.93;;;17.70;54.30;;;;;;10483996;28;20028;-63
2021/04/06 06:07:03;;;;;;;6.90;1.45;;;17.70;53.90;;;;;;10462359;28;20063;-62
2021/04/06 06:12:07;;;;;;;4.40;1.48;;;17.70;53.80;;;;;;10461211;28;20491;-64
2021/04/06 06:17:21;;;;;;;11.40;1.67;;;17.70;53.40;;;;;;10475451;28;20024;-64
2021/04/06 06:22:32;;;;;;;5.47;1.13;;;17.70;53.30;;;;;;10486408;28;20032;-64
2021/04/06 06:27:42;;;;;;;7.68;1.67;;;17.70;53.30;;;;;;10503865;28;20074;-64
2021/04/06 06:32:42;;;;;;;;;;;17.70;53.40;;;;;;10464612;28;20391;-65
2021/04/06 06:37:43;;;;;;;12.88;1.40;;;17.70;54.00;;;;;;10494533;28;19912;-58
2021/04/06 06:42:44;;;;;;;12.68;1.52;;;17.60;54.20;;;;;;10464698;28;20032;-62
2021/04/06 06:47:54;;;;;;;6.88;1.60;;;17.60;54.50;;;;;;10467701;28;20040;-62
2021/04/06 06:52:56;;;;;;;9.07;1.52;;;17.60;55.30;;;;;;10484858;28;20035;-63
2021/04/06 06:58:03;;;;;;;6.82;1.63;;;17.60;54.70;;;;;;10500196;28;20369;-64
2021/04/06 07:03:14;;;;;;;7.75;1.30;;;17.60;55.10;;;;;;10501058;28;20040;-64
2021/04/06 07:08:27;;;;;;;10.57;2.05;;;17.60;55.40;;;;;;10498380;28;20021;-65
2021/04/06 07:13:32;;;;;;;5.18;1.42;;;17.50;55.60;;;;;;10481156;28;20040;-64
2021/04/06 07:18:33;;;;;;;7.35;1.58;;;17.50;55.80;;;;;;10478041;28;20036;-66
2021/04/06 07:23:56;;;;;;;12.18;1.77;;;17.40;55.70;;;;;;10477085;28;20044;-64
2021/04/06 07:28:58;;;;;;;7.53;1.00;;;17.40;55.90;;;;;;10504346;28;20020;-66
2021/04/06 07:34:00;;;;;;;8.13;1.30;;;17.40;55.80;;;;;;10479254;28;20082;-64
2021/04/06 07:39:07;;;;;;;5.95;1.50;;;17.50;55.80;;;;;;10500504;28;20406;-65
2021/04/06 07:44:10;;;;;;;12.50;1.33;;;17.50;55.70;;;;;;10490258;28;20067;-64
2021/04/06 07:49:16;;;;;;;4.15;0.93;;;17.50;55.50;;;;;;10498938;28;20488;-64
2021/04/06 07:54:42;;;;;;;9.50;2.40;;;17.50;55.40;;;;;;10494646;28;20032;-64
2021/04/06 07:59:52;;;;;;;9.18;1.00;;;17.40;55.60;;;;;;10499645;28;20063;-63
2021/04/06 08:04:56;;;;;;;9.40;1.67;;;17.40;55.60;;;;;;10498459;28;20056;-64
2021/04/06 08:10:00;;;;;;;5.95;1.95;;;17.40;55.70;;;;;;10499174;28;20024;-64
2021/04/06 08:15:13;;;;;;;8.95;1.70;;;17.40;55.60;;;;;;10499555;28;20044;-64
2021/04/06 08:20:42;;;;;;;5.70;1.42;;;17.40;55.70;;;;;;10503055;28;20028;-62
2021/04/06 08:25:46;;;;;;;8.95;2.58;;;17.40;55.60;;;;;;10498905;28;20032;-62
2021/04/06 08:30:47;;;;;;;12.68;1.77;;;17.40;55.90;;;;;;10489222;28;20091;-62
2021/04/06 08:35:52;;;;;;;8.90;1.60;;;17.40;56.30;;;;;;10477050;28;20454;-61
2021/04/06 08:41:26;;;;;;;6.45;1.40;;;17.40;56.10;;;;;;10498219;28;20028;-64
2021/04/06 08:46:35;;;;;;;7.35;1.02;;;17.30;55.70;;;;;;10481982;28;20385;-66
2021/04/06 08:51:40;;;;;;;5.55;1.23;;;17.40;56.00;;;;;;10497138;28;20135;-64
2021/04/06 08:56:55;;;;;;;8.20;1.38;;;17.40;55.90;;;;;;10497821;28;20063;-62
2021/04/06 09:01:57;;;;;;;7.95;1.30;;;17.40;56.00;;;;;;10499813;28;20032;-64
2021/04/06 09:06:58;;;;;;;12.73;1.88;;;17.30;56.10;;;;;;10498120;28;20472;-68
2021/04/06 09:12:00;;;;;;;14.80;1.27;;;17.20;56.20;;;;;;10468036;28;20028;-62
2021/04/06 09:17:01;;;;;;;7.70;1.80;;;17.20;56.10;;;;;;10496220;28;20436;-63
2021/04/06 09:22:10;;;;;;;7.20;1.30;;;17.20;55.90;;;;;;10496597;28;20149;-62
2021/04/06 09:27:11;;;;;;;8.43;1.33;;;17.20;56.10;;;;;;10478030;28;20044;-62
2021/04/06 09:32:20;;;;;;;6.15;1.10;;;17.20;56.20;;;;;;10487029;28;20297;-64
2021/04/06 09:37:27;;;;;;;;;;;17.20;56.30;;;;;;10497155;28;20052;-63
2021/04/06 09:42:27;;;;;;;10.13;1.40;;;17.20;56.40;;;;;;10477180;28;19971;-61
2021/04/06 09:47:28;;;;;;;4.78;0.90;;;17.20;57.20;;;;;;10496326;28;20050;-62
2021/04/06 09:52:29;;;;;;;6.57;1.33;;;17.20;56.90;;;;;;10475610;28;20036;-62
2021/04/06 09:57:37;;;;;;;9.98;1.50;;;17.10;56.80;;;;;;10494903;28;20036;-61
2021/04/06 10:02:38;;;;;;;5.57;1.75;;;17.10;56.70;;;;;;10474328;28;20058;-62
2021/04/06 10:07:48;;;;;;;13.32;1.60;;;17.10;56.70;;;;;;10496208;28;20032;-63
2021/04/06 10:12:51;;;;;;;8.85;1.77;;;17.10;56.80;;;;;;10476696;28;20050;-62
2021/04/06 10:17:53;;;;;;;10.73;1.50;;;17.10;56.90;;;;;;10493768;28;20131;-65
2021/04/06 10:22:57;;;;;;;7.10;1.40;;;17.10;56.90;;;;;;10474689;28;20032;-62
2021/04/06 10:28:03;;;;;;;7.85;1.00;;;17.10;56.80;;;;;;10498101;28;20024;-61
2021/04/06 10:33:10;;;;;;;5.40;1.13;;;17.10;56.70;;;;;;10489606;28;20052;-61
2021/04/06 10:38:29;;;;;;;6.50;1.67;;;17.10;56.70;;;;;;10490042;28;20036;-62
2021/04/06 10:43:32;;;;;;;4.43;0.93;;;17.00;56.80;;;;;;10500894;28;20040;-62
2021/04/06 10:48:38;;;;;;;7.50;1.23;;;17.00;57.00;;;;;;10502672;28;20021;-62
2021/04/06 10:54:01;;;;;;;3.17;1.17;;;17.00;57.00;;;;;;10502603;28;20457;-63
2021/04/06 10:59:12;;;;;;;7.15;0.98;;;17.00;57.00;;;;;;10474762;28;20123;-62
2021/04/06 11:04:15;;;;;;;3.50;0.93;;;17.00;56.80;;;;;;10477632;28;20036;-64
2021/04/06 11:09:23;;;;;;;4.45;1.50;;;17.00;57.10;;;;;;10494624;28;20031;-62
2021/04/06 11:14:26;;;;;;;6.55;0.80;;;17.00;57.00;;;;;;10492401;28;20064;-63
2021/04/06 11:19:36;;;;;;;2.53;0.75;;;17.10;56.90;;;;;;10493688;28;20029;-64
2021/04/06 11:24:38;;;;;;;6.15;0.77;;;17.10;56.80;;;;;;10486624;28;20037;-63
2021/04/06 11:29:41;;;;;;;2.22;0.98;;;17.10;56.80;;;;;;10493919;28;20036;-63
2021/04/06 11:34:42;;;;;;;4.45;0.80;;;17.10;56.70;;;;;;10493801;28;20072;-62
2021/04/06 11:39:46;;;;;;;5.30;0.70;;;17.00;56.60;;;;;;10493820;28;20035;-62
2021/04/06 11:44:47;;;;;;;2.80;0.98;;;17.00;56.60;;;;;;10475144;28;20476;-62
2021/04/06 11:49:47;;;;;;;3.10;0.93;;;16.90;56.60;;;;;;10492002;28;20125;-62
2021/04/06 11:54:48;;;;;;;2.95;0.70;;;16.80;56.60;;;;;;10490905;28;20032;-62
2021/04/06 11:59:49;;;;;;;2.22;1.02;;;16.80;56.40;;;;;;10494052;28;20103;-61
2021/04/06 12:04:50;;;;;;;3.47;0.82;;;16.90;56.30;;;;;;10499299;28;20094;-62
2021/04/06 12:09:52;;;;;;;4.43;1.05;;;16.90;56.50;;;;;;10499291;28;20036;-63
2021/04/06 12:14:53;;;;;;;3.58;1.05;;;17.00;56.60;;;;;;10498892;28;20025;-63
2021/04/06 12:19:53;;;;;;;3.80;0.60;;;17.00;56.30;;;;;;10499270;28;20025;-63
2021/04/06 12:24:54;;;;;;;4.30;1.15;;;17.10;56.20;;;;;;10498319;28;20029;-64
2021/04/06 12:29:55;;;;;;;6.22;0.98;;;17.10;56.10;;;;;;10479666;28;20131;-63
2021/04/06 12:34:56;;;;;;;4.65;0.95;;;17.10;56.10;;;;;;10479370;28;20127;-63
2021/04/06 12:39:57;;;;;;;5.97;1.08;;;17.20;56.20;;;;;;10497486;28;20383;-63
2021/04/06 12:44:57;;;;;;;3.65;0.60;;;17.20;56.10;;;;;;10497569;28;20062;-63
2021/04/06 12:49:58;;;;;;;3.08;0.70;;;17.20;56.00;;;;;;10496446;28;20123;-63
2021/04/06 12:54:59;;;;;;;4.30;0.98;;;17.10;55.90;;;;;;10497403;28;20086;-62
2021/04/06 13:00:00;;;;;;;5.07;0.73;;;17.10;56.00;;;;;;10478958;28;20082;-63
2021/04/06 13:05:03;;;;;;;2.67;1.15;;;17.00;56.10;;;;;;10497178;28;20060;-63
2021/04/06 13:10:05;;;;;;;5.93;0.90;;;17.00;56.20;;;;;;10496753;28;20392;-63
2021/04/06 13:15:08;;;;;;;4.75;1.48;;;16.90;56.10;;;;;;10496541;28;20086;-63
2021/04/06 13:20:12;;;;;;;3.75;0.63;;;16.90;56.00;;;;;;10468916;28;20032;-64
2021/04/06 13:25:14;;;;;;;4.40;0.90;;;16.90;55.80;;;;;;10495448;28;20082;-62
2021/04/06 13:30:18;;;;;;;8.13;1.13;;;17.00;56.20;;;;;;10479170;28;20116;-63
2021/04/06 13:35:20;;;;;;;8.13;1.00;;;17.00;56.40;;;;;;10479555;28;20095;-63
2021/04/06 13:40:22;;;;;;;5.47;1.60;;;17.00;56.60;;;;;;10468852;28;20036;-63
2021/04/06 13:45:24;;;;;;;6.40;1.05;;;17.00;56.80;;;;;;10477812;28;20039;-63
2021/04/06 13:50:25;;;;;;;5.93;0.70;;;17.10;56.80;;;;;;10490426;28;20025;-63
2021/04/06 13:55:28;;;;;;;5.07;0.73;;;17.10;56.70;;;;;;10477454;28;20119;-63
2021/04/06 14:00:39;;;;;;;9.20;0.95;;;17.10;56.90;;;;;;10465527;28;20024;-63
2021/04/06 14:05:41;;;;;;;5.38;0.65;;;17.00;57.10;;;;;;10500169;28;20024;-63
2021/04/06 14:10:42;;;;;;;7.93;0.95;;;17.00;57.30;;;;;;10503248;28;20024;-63
2021/04/06 14:15:44;;;;;;;7.05;1.17;;;17.00;57.50;;;;;;10503316;28;20396;-63
2021/04/06 14:20:47;;;;;;;10.15;1.08;;;17.00;57.50;;;;;;10499828;28;20075;-63
2021/04/06 14:25:48;;;;;;;6.43;2.13;;;16.90;57.50;;;;;;10488553;28;20522;-62
2021/04/06 14:30:51;;;;;;;5.47;1.00;;;16.90;58.30;;;;;;10502544;28;20033;-63
2021/04/06 14:35:53;;;;;;;6.95;1.65;;;16.90;57.80;;;;;;10502068;28;20186;-63
2021/04/06 14:40:55;;;;;;;4.40;0.90;;;17.00;57.30;;;;;;10500700;28;20040;-61
2021/04/06 14:46:04;;;;;;;5.65;0.95;;;17.00;57.20;;;;;;10501334;28;20021;-64
2021/04/06 14:51:08;;;;;;;5.63;1.02;;;17.10;57.20;;;;;;10502217;28;20084;-69
2021/04/06 14:56:09;;;;;;;14.65;1.95;;;17.00;57.10;;;;;;10502129;28;20078;-69
2021/04/06 15:01:12;;;;;;;4.18;1.70;;;17.00;56.80;;;;;;10501512;28;20434;-69
2021/04/06 15:06:13;;;;;;;11.10;1.98;;;17.00;56.90;;;;;;10497548;28;20025;-69
2021/04/06 15:11:15;;;;;;;6.68;1.00;;;17.10;56.80;;;;;;10499071;28;20043;-68
2021/04/06 15:16:17;;;;;;;9.00;1.50;;;17.00;56.70;;;;;;10471014;28;20033;-70
2021/04/06 15:21:19;;;;;;;4.53;0.80;;;17.00;56.50;;;;;;10475205;28;20028;-69
2021/04/06 15:26:21;;;;;;;5.05;1.17;;;17.00;56.90;;;;;;10482587;28;20079;-69
2021/04/06 15:31:22;;;;;;;9.10;1.15;;;17.00;56.40;;;;;;10499739;28;20036;-67
2021/04/06 15:36:23;;;;;;;3.47;0.95;;;17.00;56.20;;;;;;10500127;28;20041;-70
2021/04/06 15:41:24;;;;;;;8.25;0.85;;;17.00;56.10;;;;;;10475308;28;20120;-61
2021/04/06 15:46:24;;;;;;;15.07;1.63;;;17.00;56.40;;;;;;10484462;28;20029;-68
2021/04/06 15:51:25;;;;;;;198.55;118.00;;;17.10;56.80;;;;;;10499097;28;20028;-70
2021/04/06 15:56:26;;;;;;;71.18;37.65;;;17.10;62.70;;;;;;10499667;28;20111;-67
2021/04/06 16:01:27;;;;;;;49.78;25.13;;;17.20;57.90;;;;;;10480756;28;20036;-64
2021/04/06 16:06:28;;;;;;;57.25;25.65;;;17.20;56.40;;;;;;10498667;28;20388;-65
2021/04/06 16:11:30;;;;;;;42.33;20.58;;;17.20;60.50;;;;;;10481646;28;20047;-65
2021/04/06 16:16:31;;;;;;;39.17;19.90;;;17.30;64.50;;;;;;10498200;28;20028;-66
2021/04/06 16:21:31;;;;;;;30.55;16.40;;;17.40;62.60;;;;;;10481133;28;20490;-63
2021/04/06 16:26:32;;;;;;;41.17;17.85;;;17.40;61.50;;;;;;10484977;28;20067;-67
2021/04/06 16:31:33;;;;;;;38.25;15.38;;;17.50;61.50;;;;;;10460367;28;20024;-68
2021/04/06 16:36:34;;;;;;;35.72;15.18;;;17.40;60.30;;;;;;10416417;28;20056;-69
2021/04/06 16:41:35;;;;;;;47.05;14.88;;;17.40;59.80;;;;;;10414225;28;20542;-72
2021/04/06 16:46:36;;;;;;;34.78;14.77;;;17.40;60.00;;;;;;10415047;28;20444;-67
2021/04/06 16:51:38;;;;;;;36.55;13.63;;;17.40;60.70;;;;;;10414166;28;20056;-60
2021/04/06 16:56:39;;;;;;;27.52;11.93;;;17.40;60.60;;;;;;10415581;28;20033;-64
2021/04/06 17:01:39;;;;;;;29.77;11.95;;;17.30;59.50;;;;;;10413620;28;20044;-64
2021/04/06 17:06:41;;;;;;;23.60;9.63;;;17.20;58.90;;;;;;10414947;28;20052;-65
2021/04/06 17:11:41;;;;;;;22.05;10.35;;;17.10;59.50;;;;;;10413630;28;20026;-65
2021/04/06 17:16:43;;;;;;;19.45;9.50;;;17.10;59.00;;;;;;10414754;28;20044;-63
2021/04/06 17:21:43;;;;;;;23.20;9.82;;;17.10;58.90;;;;;;10429981;28;20041;-64
2021/04/06 17:26:45;;;;;;;21.50;10.18;;;17.10;59.00;;;;;;10414263;28;20038;-69
2021/04/06 17:31:49;;;;;;;20.02;9.38;;;17.10;58.90;;;;;;10393923;28;20028;-65
2021/04/06 17:36:49;;;;;;;15.13;8.43;;;17.20;59.00;;;;;;10445121;28;20040;-58
2021/04/06 17:41:50;;;;;;;17.70;8.15;;;17.30;58.60;;;;;;10429469;28;20055;-58
2021/04/06 17:46:51;;;;;;;19.80;9.18;;;17.30;58.60;;;;;;10432399;28;20051;-59
2021/04/06 17:51:53;;;;;;;19.27;7.60;;;17.30;58.70;;;;;;10422904;28;20496;-57
2021/04/06 17:56:54;;;;;;;15.30;7.63;;;17.30;58.70;;;;;;10416875;28;20191;-58
2021/04/06 18:01:55;;;;;;;15.27;7.43;;;17.40;58.60;;;;;;10426018;28;20059;-59
2021/04/06 18:06:56;;;;;;;14.63;7.10;;;17.30;58.50;;;;;;10443403;28;20075;-59
2021/04/06 18:11:57;;;;;;;14.25;7.32;;;17.30;58.50;;;;;;10452951;28;20021;-59
2021/04/06 18:16:58;;;;;;;15.23;7.22;;;17.30;58.40;;;;;;10452791;28;20421;-59
2021/04/06 18:21:59;;;;;;;15.10;7.50;;;17.30;58.20;;;;;;10451501;28;20037;-58
2021/04/06 18:27:00;;;;;;;15.48;6.93;;;17.30;58.30;;;;;;10441395;28;20052;-58
2021/04/06 18:32:02;;;;;;;14.50;6.72;;;17.30;58.20;;;;;;10454034;28;20037;-58
2021/04/06 18:37:03;;;;;;;12.07;5.82;;;17.30;58.00;;;;;;10494780;28;20123;-57
2021/04/06 18:42:11;;;;;;;9.38;5.15;;;17.30;57.90;;;;;;10475461;28;20032;-58
2021/04/06 18:47:11;;;;;;;14.63;6.15;;;17.40;57.90;;;;;;10491153;28;20033;-57
2021/04/06 18:52:12;;;;;;;9.48;5.25;;;17.40;57.80;;;;;;10499760;28;20033;-56
2021/04/06 18:57:14;;;;;;;11.30;5.50;;;17.30;57.70;;;;;;10482978;28;20032;-56
2021/04/06 19:02:17;;;;;;;14.52;4.85;;;17.30;57.70;;;;;;10501821;28;20028;-56
2021/04/06 19:07:17;;;;;;;9.65;5.05;;;17.30;57.70;;;;;;10475407;28;20068;-56
2021/04/06 19:12:18;;;;;;;10.23;4.10;;;17.30;57.70;;;;;;10499489;28;20025;-57
2021/04/06 19:17:19;;;;;;;10.68;4.93;;;17.30;57.50;;;;;;10500395;28;20043;-58
2021/04/06 19:22:20;;;;;;;10.10;4.20;;;17.30;57.50;;;;;;10501320;28;20063;-59
2021/04/06 19:27:21;;;;;;;9.32;3.72;;;17.30;57.40;;;;;;10483228;28;20082;-58
2021/04/06 19:32:22;;;;;;;7.97;3.60;;;17.30;57.80;;;;;;10500863;28;20090;-63
2021/04/06 19:37:22;;;;;;;9.00;3.47;;;17.30;57.30;;;;;;10500310;28;20044;-62
2021/04/06 19:42:25;;;;;;;7.50;3.70;;;17.30;57.00;;;;;;10481636;28;20033;-64
2021/04/06 19:47:26;;;;;;;9.82;3.33;;;17.30;57.00;;;;;;10471761;28;20032;-64
2021/04/06 19:52:26;;;;;;;8.23;3.63;;;17.40;56.90;;;;;;10480578;28;20488;-63
2021/04/06 19:57:27;;;;;;;7.93;3.63;;;17.40;56.80;;;;;;10480279;28;20036;-63
2021/04/06 20:02:28;;;;;;;8.52;3.67;;;17.40;56.70;;;;;;10480544;28;20020;-63
2021/04/06 20:07:28;;;;;;;7.65;3.33;;;17.30;56.60;;;;;;10479660;28;20051;-63
2021/04/06 20:12:29;;;;;;;6.70;2.83;;;17.40;56.50;;;;;;10455804;28;20048;-63
2021/04/06 20:17:30;;;;;;;7.45;2.85;;;17.40;56.40;;;;;;10458111;28;20041;-63
2021/04/06 20:22:31;;;;;;;7.15;2.40;;;17.40;56.30;;;;;;10481405;28;20031;-63
2021/04/06 20:27:32;;;;;;;11.13;3.20;;;17.40;56.20;;;;;;10467553;28;20410;-62
2021/04/06 20:32:33;;;;;;;9.15;3.15;;;17.40;56.20;;;;;;10494406;28;20044;-62
2021/04/06 20:37:33;;;;;;;4.95;2.10;;;17.40;56.10;;;;;;10479711;28;20028;-63
2021/04/06 20:42:34;;;;;;;3.60;2.60;;;17.40;56.00;;;;;;10479665;28;20074;-63
2021/04/06 20:47:35;;;;;;;5.50;2.70;;;17.50;56.00;;;;;;10480273;28;20024;-63
2021/04/06 20:52:36;;;;;;;5.45;2.38;;;17.40;55.90;;;;;;10469057;28;20036;-63
2021/04/06 20:57:37;;;;;;;4.47;2.22;;;17.50;55.60;;;;;;10497947;28;20039;-63
2021/04/06 21:02:37;;;;;;;3.17;2.03;;;17.50;55.70;;;;;;10467994;28;20047;-63
2021/04/06 21:07:38;;;;;;;4.00;2.28;;;17.50;55.70;;;;;;10497642;28;20021;-62
2021/04/06 21:12:39;;;;;;;4.20;1.75;;;17.50;55.60;;;;;;10479270;28;20456;-63
2021/04/06 21:17:39;;;;;;;4.53;1.88;;;17.50;55.50;;;;;;10497488;28;20515;-63
2021/04/06 21:22:40;;;;;;;5.57;2.40;;;17.50;55.40;;;;;;10479078;28;20060;-63
2021/04/06 21:27:42;;;;;;;4.43;1.70;;;17.50;55.30;;;;;;10478854;28;20499;-63
2021/04/06 21:32:44;;;;;;;4.03;2.20;;;17.50;55.30;;;;;;10478882;28;20512;-63
2021/04/06 21:37:47;;;;;;;5.30;1.80;;;17.50;55.30;;;;;;10497154;28;20033;-63
2021/04/06 21:42:48;;;;;;;3.13;2.05;;;17.60;55.20;;;;;;10479240;28;20548;-63
2021/04/06 21:47:50;;;;;;;5.38;2.00;;;17.50;55.10;;;;;;10479174;28;20032;-63
2021/04/06 21:52:51;;;;;;;4.47;2.35;;;17.60;55.10;;;;;;10477674;28;20062;-63
2021/04/06 21:57:51;;;;;;;3.97;1.88;;;17.60;55.00;;;;;;10471090;28;20058;-63
2021/04/06 22:02:52;;;;;;;3.78;1.50;;;17.60;55.00;;;;;;10478497;28;20123;-63
2021/04/06 22:07:53;;;;;;;3.33;1.50;;;17.60;54.90;;;;;;10484855;28;20032;-63
2021/04/06 22:12:54;;;;;;;3.75;1.42;;;17.60;54.90;;;;;;10503812;28;20515;-64
2021/04/06 22:17:55;;;;;;;2.10;1.38;;;17.60;54.90;;;;;;10478398;28;20059;-63
2021/04/06 22:23:02;;;;;;;3.13;1.23;;;17.60;54.80;;;;;;10488820;28;20108;-64
2021/04/06 22:28:13;;;;;;;4.38;1.48;;;17.50;54.80;;;;;;10466841;28;20455;-63
2021/04/06 22:33:15;;;;;;;3.42;1.60;;;17.60;54.80;;;;;;10465249;28;20079;-63
2021/04/06 22:38:18;;;;;;;5.93;1.63;;;17.60;54.70;;;;;;10468972;28;20036;-62
2021/04/06 22:43:19;;;;;;;3.78;1.50;;;17.60;54.60;;;;;;10478531;28;20526;-63
2021/04/06 22:48:19;;;;;;;3.83;1.60;;;17.60;54.50;;;;;;10485343;28;20029;-63
2021/04/06 22:53:23;;;;;;;3.22;1.20;;;17.60;54.50;;;;;;10502959;28;20482;-63
2021/04/06 22:58:37;;;;;;;2.35;1.25;;;17.60;54.50;;;;;;10485101;28;20357;-63
2021/04/06 23:03:40;;;;;;;2.15;1.13;;;17.60;54.50;;;;;;10467930;28;20036;-63
2021/04/06 23:08:44;;;;;;;3.40;1.17;;;17.60;54.50;;;;;;10483506;28;20024;-63
2021/04/06 23:13:44;;;;;;;2.83;1.30;;;17.60;54.50;;;;;;10481678;28;20035;-63
2021/04/06 23:18:46;;;;;;;3.38;1.15;;;17.60;54.40;;;;;;10498046;28;20031;-63
2021/04/06 23:23:46;;;;;;;2.95;1.00;;;17.60;54.30;;;;;;10484040;28;20396;-63
2021/04/06 23:28:47;;;;;;;1.63;0.88;;;17.70;54.30;;;;;;10501692;28;20107;-63
2021/04/06 23:33:48;;;;;;;3.53;1.15;;;17.70;54.10;;;;;;10500677;28;20127;-63
2021/04/06 23:38:48;;;;;;;4.47;1.20;;;17.70;54.00;;;;;;10500975;28;20041;-63
2021/04/06 23:43:49;;;;;;;3.63;1.13;;;17.70;54.10;;;;;;10483360;28;20122;-63
2021/04/06 23:48:50;;;;;;;3.33;1.55;;;17.70;54.10;;;;;;10482728;28;20042;-63
2021/04/06 23:53:50;;;;;;;1.45;0.73;;;17.70;54.10;;;;;;10500423;28;20108;-63
2021/04/06 23:58:51;;;;;;;3.00;0.90;;;17.70;54.10;;;;;;10482300;28;20117;-64
